Snake River Valley :: Plymouth A1

liberation: 2021-09-25  08:00     latitude: 41.885397     longitude: -112.168582 53 birds
# LOFT PRING MILES ARRIVAL SPEED ToWin
1 M&T Wall AU21-SRV-0045 121.649 2021-09-25 10:35:36.596 1375.891 00:00:00
2 M&T Wall AU21-SRV-0036 121.649 2021-09-25 10:35:38.132 1375.665 00:00:02
3 M&T Wall AU21-SRV-0001 121.649 2021-09-25 10:35:38.988 1375.539 00:00:02
4 M&T Wall AU21-SRV-0037 121.649 2021-09-25 10:35:39.715 1375.432 00:00:03
5 M&T Wall AU21-SRV-0022 121.649 2021-09-25 10:35:40.443 1375.324 00:00:04
6 M&T Wall AU21-SRV-0039 121.649 2021-09-25 10:35:40.542 1375.310 00:00:04
7 M&T Wall AU21-SRV-0011 121.649 2021-09-25 10:35:40.655 1375.293 00:00:04
8 M&T Wall AU21-SRV-0013 121.649 2021-09-25 10:35:41.033 1375.238 00:00:04
9 M&T Wall AU21-SRV-0020 121.649 2021-09-25 10:35:41.165 1375.218 00:00:05
10 M&T Wall AU21-SRV-0021 121.649 2021-09-25 10:35:42.163 1375.071 00:00:06
11 M&T Wall AU21-SRV-0004 121.649 2021-09-25 10:35:42.935 1374.958 00:00:06
12 M&T Wall AU21-SRV-0018 121.649 2021-09-25 10:35:49.758 1373.954 00:00:13
13 M&T Wall AU21-SRV-0007 121.649 2021-09-25 10:35:50.119 1373.901 00:00:14
14 M&T Wall AU21-SRV-0050 121.649 2021-09-25 10:35:52.969 1373.483 00:00:16
15 M&T Wall AU21-SRV-0031 121.649 2021-09-25 10:35:58.566 1372.661 00:00:22
16 M&T Wall AU21-SRV-0025 121.649 2021-09-25 10:36:10.778 1370.872 00:00:34
17 M&T Wall AU21-SRV-0034 121.649 2021-09-25 10:37:20.201 1360.791 00:01:44
18 M&T Wall AU21-SRV-0029 121.649 2021-09-25 10:39:59.432 1338.219 00:04:23
19 M&T Wall AU21-SRV-0368 121.649 2021-09-25 10:40:01.193 1337.973 00:04:25
20 M&T Wall AU21-SRV-0367 121.649 2021-09-25 10:40:01.963 1337.866 00:04:25
21 Acorn Loft AU21-ARPU-1727 109.818 2021-09-25 10:26:34.689 1318.614 00:06:06
22 M&T Wall AU21-SRV-0028 121.649 2021-09-25 10:46:45.365 1283.925 00:11:09
23 M&T Wall AU21-SRV-0373 121.649 2021-09-25 10:46:49.949 1283.337 00:11:13
24 M&T Wall AU21-SRV-0378 121.649 2021-09-25 10:46:52.281 1283.038 00:11:16
25 Acorn Loft AU21-ARPU-1725 109.818 2021-09-25 10:34:46.063 1248.839 00:14:17
26 Acorn Loft AU21-ARPU-1722 109.818 2021-09-25 10:34:46.448 1248.787 00:14:18
27 M&T Wall AU21-SRV-0010 121.649 2021-09-25 10:52:41.152 1239.837 00:17:05
28 M&T Wall AU21-SRV-0009 121.649 2021-09-25 11:09:19.754 1130.847 00:33:43
29 Acorn Loft AU21-ARPU-1717 109.818 2021-09-25 10:59:10.680 1078.704 00:38:42
AU-SRV-201 0 0000-00-00 00:00:00.000 0.000 00:00:00
AU-SRV-205 0 0000-00-00 00:00:00.000 0.000 00:00:00
AU21-SRC-246 0 0000-00-00 00:00:00.000 0.000 00:00:00
AU21-SRV-202 0 0000-00-00 00:00:00.000 0.000 00:00:00
AU21-SRV-203 0 0000-00-00 00:00:00.000 0.000 00:00:00
AU21-SRV-204 0 0000-00-00 00:00:00.000 0.000 00:00:00
AU21-SRV-207 0 0000-00-00 00:00:00.000 0.000 00:00:00
AU21-SRV-208 0 0000-00-00 00:00:00.000 0.000 00:00:00
AU21-SRV-209 0 0000-00-00 00:00:00.000 0.000 00:00:00
AU21-SRV-210 0 0000-00-00 00:00:00.000 0.000 00:00:00
AU21-SRV-211 0 0000-00-00 00:00:00.000 0.000 00:00:00
AU21-SRV-213 0 0000-00-00 00:00:00.000 0.000 00:00:00
AU21-SRV-216 0 0000-00-00 00:00:00.000 0.000 00:00:00
AU21-SRV-218 0 0000-00-00 00:00:00.000 0.000 00:00:00
AU21-SRV-221 0 0000-00-00 00:00:00.000 0.000 00:00:00
AU21-SRV-225 0 0000-00-00 00:00:00.000 0.000 00:00:00
AU21-SRV-227 0 0000-00-00 00:00:00.000 0.000 00:00:00
AU21-SRV-234 0 0000-00-00 00:00:00.000 0.000 00:00:00
AU21-SRV-238 0 0000-00-00 00:00:00.000 0.000 00:00:00
AU21-SRV-240 0 0000-00-00 00:00:00.000 0.000 00:00:00
AU21-SRV-242 0 0000-00-00 00:00:00.000 0.000 00:00:00
AU21-SRV-245 0 0000-00-00 00:00:00.000 0.000 00:00:00
AU21-SVR-214 0 0000-00-00 00:00:00.000 0.000 00:00:00
Acorn Loft AU21-ARPU-1710 0 0000-00-00 00:00:00.000 0.000 00:00:00